Time;durP1;ratioP1;P1;durP2;ratioP2;P2;SDS_P1;SDS_P2;PMS_P1;PMS_P2;Temp;Humidity;BMP_temperature;BMP_pressure;BME280_temperature;BME280_humidity;BME280_pressure;Samples;Min_cycle;Max_cycle;Signal;HPM_P1;HPM_P2
2021/03/06 00:00:28;;;;;;;14.70;8.57;;;9.60;99.90;;;;;;4971341;28;20210;-75
2021/03/06 00:02:55;;;;;;;13.03;8.03;;;9.60;99.90;;;;;;4972009;28;20757;-78
2021/03/06 00:05:23;;;;;;;9.93;7.50;;;9.40;99.90;;;;;;4971381;28;20239;-78
2021/03/06 00:07:49;;;;;;;12.60;8.90;;;9.50;99.90;;;;;;4975427;28;20260;-78
2021/03/06 00:10:17;;;;;;;13.70;8.17;;;9.70;99.90;;;;;;4975169;28;20236;-78
2021/03/06 00:12:46;;;;;;;13.83;9.83;;;9.80;99.90;;;;;;4975194;28;20214;-77
2021/03/06 00:15:15;;;;;;;12.97;9.37;;;9.80;99.90;;;;;;4975507;28;20213;-77
2021/03/06 00:17:42;;;;;;;12.07;9.50;;;9.70;99.90;;;;;;4975621;28;20621;-77
2021/03/06 00:20:09;;;;;;;15.30;11.00;;;9.70;99.90;;;;;;4974740;28;20678;-77
2021/03/06 00:22:36;;;;;;;12.07;8.90;;;9.80;99.90;;;;;;4975332;28;20217;-77
2021/03/06 00:25:05;;;;;;;15.63;10.57;;;9.80;99.90;;;;;;4974713;28;20229;-78
2021/03/06 00:27:32;;;;;;;15.57;10.40;;;9.80;99.90;;;;;;4974960;28;20293;-76
2021/03/06 00:29:59;;;;;;;14.13;9.23;;;9.70;99.90;;;;;;4974600;28;20260;-77
2021/03/06 00:32:26;;;;;;;13.93;10.53;;;9.70;99.90;;;;;;4975842;28;20232;-77
2021/03/06 00:34:52;;;;;;;14.83;11.00;;;9.80;99.90;;;;;;4975377;28;20260;-77
2021/03/06 00:37:19;;;;;;;12.83;10.03;;;9.90;99.90;;;;;;4974727;28;20221;-77
2021/03/06 00:39:45;;;;;;;17.67;11.10;;;9.80;99.90;;;;;;4975006;28;20245;-77
2021/03/06 00:42:12;;;;;;;14.83;10.20;;;9.70;99.90;;;;;;4974322;28;20649;-77
2021/03/06 00:44:38;;;;;;;16.43;10.43;;;9.60;99.90;;;;;;4975102;28;20206;-77
2021/03/06 00:47:05;;;;;;;16.03;10.60;;;9.60;99.90;;;;;;4974497;28;20217;-76
2021/03/06 00:49:32;;;;;;;14.07;10.43;;;9.70;99.90;;;;;;4975083;28;20213;-77
2021/03/06 00:51:59;;;;;;;12.10;10.40;;;9.50;99.90;;;;;;4974448;28;20272;-77
2021/03/06 00:54:25;;;;;;;13.23;10.93;;;9.60;99.90;;;;;;4975331;28;20209;-77
2021/03/06 00:56:52;;;;;;;17.00;9.93;;;9.50;99.90;;;;;;4974767;28;20217;-77
2021/03/06 00:59:18;;;;;;;16.90;10.73;;;9.30;99.90;;;;;;4974177;28;20560;-76
2021/03/06 01:01:45;;;;;;;16.80;11.80;;;9.40;99.90;;;;;;4974790;28;20209;-77
2021/03/06 01:04:11;;;;;;;17.77;10.27;;;9.40;99.90;;;;;;4973823;28;20696;-77
2021/03/06 01:06:38;;;;;;;12.87;10.43;;;9.40;99.90;;;;;;4974378;28;20233;-76
2021/03/06 01:09:05;;;;;;;14.90;9.93;;;9.20;99.90;;;;;;4974171;28;20205;-76
2021/03/06 01:11:32;;;;;;;12.77;10.40;;;9.10;99.90;;;;;;4974341;28;20213;-78
2021/03/06 01:13:58;;;;;;;15.30;10.30;;;9.00;99.90;;;;;;4974393;28;20261;-75
2021/03/06 01:16:25;;;;;;;13.43;9.53;;;8.90;99.90;;;;;;4974487;28;20225;-75
2021/03/06 01:18:52;;;;;;;17.10;9.60;;;8.90;99.90;;;;;;4973428;28;20240;-76
2021/03/06 01:21:18;;;;;;;11.00;9.67;;;8.90;99.90;;;;;;4973734;28;20218;-77
2021/03/06 01:23:46;;;;;;;14.27;10.80;;;8.80;99.90;;;;;;4974336;28;20205;-75
2021/03/06 01:26:13;;;;;;;17.37;11.70;;;8.70;99.90;;;;;;4973787;28;20245;-77
2021/03/06 01:28:39;;;;;;;15.23;10.27;;;8.60;99.90;;;;;;4973832;28;20213;-79
2021/03/06 01:31:06;;;;;;;15.93;10.80;;;8.60;99.90;;;;;;4973696;28;20214;-77
2021/03/06 01:33:32;;;;;;;16.30;10.70;;;8.80;99.90;;;;;;4974099;28;20249;-77
2021/03/06 01:35:59;;;;;;;14.63;10.73;;;8.90;99.90;;;;;;4973788;28;20206;-78
2021/03/06 01:38:25;;;;;;;15.30;11.30;;;9.10;99.90;;;;;;4973906;28;20225;-77
2021/03/06 01:40:53;;;;;;;14.87;11.53;;;9.10;99.90;;;;;;4973942;28;20205;-77
2021/03/06 01:43:20;;;;;;;19.63;11.43;;;9.20;99.90;;;;;;4973676;28;20209;-77
2021/03/06 01:45:47;;;;;;;16.47;12.20;;;9.10;99.90;;;;;;4974153;28;20691;-77
2021/03/06 01:48:14;;;;;;;18.20;11.27;;;9.00;99.90;;;;;;4973481;28;20268;-77
2021/03/06 01:50:43;;;;;;;16.03;10.87;;;8.80;99.90;;;;;;4973608;28;20202;-77
2021/03/06 01:53:12;;;;;;;12.43;10.47;;;8.70;99.90;;;;;;4973235;28;20425;-77
2021/03/06 01:55:42;;;;;;;17.23;10.90;;;8.60;99.90;;;;;;4973270;28;20724;-77
2021/03/06 01:58:10;;;;;;;16.60;12.60;;;8.40;99.90;;;;;;4973195;28;20206;-76
2021/03/06 02:00:36;;;;;;;20.83;12.57;;;8.30;99.90;;;;;;4973519;28;20243;-76
2021/03/06 02:03:04;;;;;;;14.43;11.03;;;8.30;99.90;;;;;;4973194;28;20209;-77
2021/03/06 02:05:31;;;;;;;14.00;10.60;;;8.20;99.90;;;;;;4972942;28;20725;-77
2021/03/06 02:07:57;;;;;;;18.53;12.47;;;8.20;99.90;;;;;;4973261;28;20264;-75
2021/03/06 02:10:28;;;;;;;14.67;11.03;;;8.20;99.90;;;;;;4973507;28;20221;-79
2021/03/06 02:13:07;;;;;;;15.07;11.20;;;8.40;99.90;;;;;;4973516;28;20206;-78
2021/03/06 02:15:42;;;;;;;15.20;11.13;;;8.40;99.90;;;;;;4973408;28;20662;-78
2021/03/06 02:18:16;;;;;;;18.63;13.33;;;8.50;99.90;;;;;;4972879;28;20246;-76
2021/03/06 02:20:48;;;;;;;25.43;11.77;;;8.60;99.90;;;;;;4973366;28;20206;-78
2021/03/06 02:24:02;;;;;;;16.93;12.60;;;8.60;99.90;;;;;;4972545;28;20214;-75
2021/03/06 02:26:42;;;;;;;17.80;11.47;;;8.60;99.90;;;;;;4972705;28;20233;-77
2021/03/06 02:29:50;;;;;;;18.37;13.80;;;8.50;99.90;;;;;;4972591;28;20224;-76
2021/03/06 02:32:21;;;;;;;19.83;13.17;;;8.40;99.90;;;;;;4949086;28;20236;-76
2021/03/06 02:34:55;;;;;;;22.07;13.63;;;8.40;99.90;;;;;;4973267;28;20217;-76
2021/03/06 02:37:26;;;;;;;17.43;13.00;;;8.50;99.90;;;;;;4959951;28;20590;-76
2021/03/06 02:39:55;;;;;;;19.13;13.10;;;8.60;99.90;;;;;;4973318;28;20209;-76
2021/03/06 02:42:24;;;;;;;20.27;13.27;;;8.60;99.90;;;;;;4972608;28;20666;-75
2021/03/06 02:44:53;;;;;;;21.27;14.33;;;8.60;99.90;;;;;;4970719;28;20214;-76
2021/03/06 02:47:20;;;;;;;18.00;13.13;;;8.60;99.90;;;;;;4972402;28;20225;-75
2021/03/06 02:49:51;;;;;;;19.40;13.33;;;8.70;99.90;;;;;;4972477;28;20688;-76
2021/03/06 02:52:17;;;;;;;18.87;12.80;;;8.70;99.90;;;;;;4972124;28;20217;-76
2021/03/06 02:54:44;;;;;;;18.53;12.97;;;8.90;99.90;;;;;;4972840;28;20216;-78
2021/03/06 02:57:13;;;;;;;20.80;14.63;;;8.80;99.90;;;;;;4972243;28;20213;-77
2021/03/06 03:00:03;;;;;;;18.30;14.07;;;8.80;99.90;;;;;;4972313;28;20241;-78
2021/03/06 03:02:42;;;;;;;22.30;14.20;;;8.70;99.90;;;;;;4969702;28;20216;-77
2021/03/06 03:05:21;;;;;;;20.30;13.63;;;8.80;99.90;;;;;;4971876;28;20719;-78
2021/03/06 03:07:52;;;;;;;20.47;13.10;;;8.70;99.90;;;;;;4972088;28;20260;-77
2021/03/06 03:10:23;;;;;;;18.83;13.10;;;8.70;99.90;;;;;;4972119;28;20213;-77
2021/03/06 03:12:56;;;;;;;21.33;12.77;;;8.90;99.90;;;;;;4971853;28;20217;-78
2021/03/06 03:15:29;;;;;;;21.33;14.00;;;8.90;99.90;;;;;;4972089;28;20248;-78
2021/03/06 03:17:58;;;;;;;17.87;13.40;;;8.90;99.90;;;;;;4972325;28;20206;-77
2021/03/06 03:20:34;;;;;;;21.00;15.37;;;8.90;99.90;;;;;;4972219;28;20213;-78
2021/03/06 03:23:05;;;;;;;21.67;13.13;;;8.90;99.90;;;;;;4971218;28;20212;-78
2021/03/06 03:25:32;;;;;;;18.77;13.70;;;9.00;99.90;;;;;;4972171;28;20237;-79
2021/03/06 03:28:00;;;;;;;19.60;12.77;;;9.00;99.90;;;;;;4971538;28;20205;-79
2021/03/06 03:30:27;;;;;;;21.80;14.33;;;8.90;99.90;;;;;;4972247;28;20240;-80
2021/03/06 03:32:55;;;;;;;21.67;14.17;;;9.00;99.90;;;;;;4971892;28;20583;-77
2021/03/06 03:35:25;;;;;;;23.00;13.50;;;9.10;99.90;;;;;;4971618;28;20217;-79
2021/03/06 03:37:54;;;;;;;20.40;14.60;;;9.20;99.90;;;;;;4971879;28;20280;-79
2021/03/06 03:40:22;;;;;;;15.70;12.10;;;9.10;99.90;;;;;;4971208;28;20588;-78
2021/03/06 03:42:50;;;;;;;20.03;13.27;;;8.80;99.90;;;;;;4971944;28;20205;-78
2021/03/06 03:45:20;;;;;;;18.87;12.63;;;8.80;99.90;;;;;;4971278;28;20233;-76
2021/03/06 03:47:47;;;;;;;18.57;13.77;;;8.90;99.90;;;;;;4971695;28;20214;-78
2021/03/06 03:50:16;;;;;;;20.23;13.80;;;8.90;99.90;;;;;;4971176;28;20201;-77
2021/03/06 03:52:45;;;;;;;20.27;15.13;;;9.00;99.90;;;;;;4971754;28;20257;-77
2021/03/06 03:55:13;;;;;;;21.30;14.00;;;8.90;99.90;;;;;;4971185;28;20218;-76
2021/03/06 03:57:40;;;;;;;25.17;14.07;;;8.80;99.90;;;;;;4971673;28;20220;-79
2021/03/06 04:00:08;;;;;;;16.87;13.53;;;8.80;99.90;;;;;;4970861;28;20210;-77
2021/03/06 04:02:35;;;;;;;19.33;14.77;;;8.80;99.90;;;;;;4971983;28;20205;-79
2021/03/06 04:05:02;;;;;;;20.30;14.10;;;8.70;99.90;;;;;;4971126;28;20217;-77
2021/03/06 04:07:29;;;;;;;18.30;13.37;;;8.50;99.90;;;;;;4971369;28;20210;-79
2021/03/06 04:09:56;;;;;;;20.87;12.80;;;8.30;99.90;;;;;;4972172;28;20216;-78
2021/03/06 04:12:22;;;;;;;20.83;14.53;;;8.40;99.90;;;;;;4971363;28;20205;-77
2021/03/06 04:14:49;;;;;;;20.20;14.47;;;8.40;99.90;;;;;;4971517;28;20587;-79
2021/03/06 04:17:15;;;;;;;22.97;14.13;;;8.40;99.90;;;;;;4970888;28;20248;-74
2021/03/06 04:19:42;;;;;;;22.77;15.13;;;8.20;99.90;;;;;;4971312;28;20206;-74
2021/03/06 04:22:08;;;;;;;25.77;15.27;;;8.20;99.90;;;;;;4971358;28;20209;-75
2021/03/06 04:24:34;;;;;;;21.27;14.37;;;8.30;99.90;;;;;;4958166;28;20261;-76
2021/03/06 04:27:02;;;;;;;20.90;15.13;;;8.50;99.90;;;;;;4970903;28;20237;-75
2021/03/06 04:29:28;;;;;;;20.17;14.27;;;8.50;99.90;;;;;;4971398;28;20205;-75
2021/03/06 04:31:55;;;;;;;24.77;15.53;;;8.50;99.90;;;;;;4972019;28;20217;-74
2021/03/06 04:34:21;;;;;;;21.10;13.97;;;8.30;99.90;;;;;;4970614;28;20681;-75
2021/03/06 04:36:47;;;;;;;20.37;13.57;;;8.20;99.90;;;;;;4971285;28;20217;-76
2021/03/06 04:39:14;;;;;;;22.67;15.03;;;8.10;99.90;;;;;;4970977;28;20205;-76
2021/03/06 04:41:40;;;;;;;19.50;12.93;;;8.30;99.90;;;;;;4971384;28;20206;-75
2021/03/06 04:44:09;;;;;;;25.13;15.03;;;8.20;99.90;;;;;;4971174;28;20206;-76
2021/03/06 04:46:36;;;;;;;24.43;14.90;;;8.10;99.90;;;;;;4971033;28;20229;-75
2021/03/06 04:49:03;;;;;;;24.93;15.90;;;8.20;99.90;;;;;;4970950;28;20216;-75
2021/03/06 04:51:29;;;;;;;19.97;13.20;;;8.20;99.90;;;;;;4971234;28;20578;-73
2021/03/06 04:53:56;;;;;;;22.50;14.47;;;8.30;99.90;;;;;;4974849;28;20681;-74
2021/03/06 04:56:23;;;;;;;24.57;15.33;;;8.20;99.90;;;;;;4974790;28;20592;-76
2021/03/06 04:58:49;;;;;;;21.63;14.17;;;8.20;99.90;;;;;;4974743;28;20236;-77
2021/03/06 05:01:17;;;;;;;20.63;14.57;;;8.20;99.90;;;;;;4974598;28;20215;-76
2021/03/06 05:03:44;;;;;;;24.13;15.30;;;8.20;99.90;;;;;;4974439;28;20210;-77
2021/03/06 05:06:11;;;;;;;23.93;15.33;;;8.20;99.90;;;;;;4974055;28;20716;-77
2021/03/06 05:08:39;;;;;;;23.53;14.67;;;8.00;99.90;;;;;;4974559;28;20213;-74
2021/03/06 05:11:06;;;;;;;20.40;14.50;;;7.80;99.90;;;;;;4974554;28;20210;-78
2021/03/06 05:13:32;;;;;;;21.73;15.43;;;7.70;99.90;;;;;;4973605;28;20622;-76
2021/03/06 05:15:59;;;;;;;21.63;14.93;;;7.70;99.90;;;;;;4973914;28;20632;-76
2021/03/06 05:18:26;;;;;;;25.27;16.57;;;7.60;99.90;;;;;;4974511;28;20210;-76
2021/03/06 05:20:53;;;;;;;21.80;13.63;;;7.50;99.90;;;;;;4974359;28;20209;-75
2021/03/06 05:23:19;;;;;;;20.90;15.07;;;7.50;99.90;;;;;;4973954;28;20210;-76
2021/03/06 05:25:46;;;;;;;23.30;15.37;;;7.40;99.90;;;;;;4974200;28;20225;-77
2021/03/06 05:28:12;;;;;;;19.93;14.60;;;7.30;99.90;;;;;;4974187;28;20209;-77
2021/03/06 05:30:38;;;;;;;21.73;15.23;;;7.30;99.90;;;;;;4974445;28;20210;-75
2021/03/06 05:33:05;;;;;;;28.33;16.30;;;7.20;99.90;;;;;;4960227;28;20670;-74
2021/03/06 05:35:32;;;;;;;25.77;18.27;;;7.20;99.90;;;;;;4974169;28;20224;-75
2021/03/06 05:37:59;;;;;;;23.57;15.37;;;7.30;99.90;;;;;;4973204;28;20233;-74
2021/03/06 05:40:30;;;;;;;20.83;16.03;;;7.20;99.90;;;;;;4974271;28;20213;-77
2021/03/06 05:42:57;;;;;;;22.20;16.73;;;7.20;99.90;;;;;;4974089;28;20256;-74
2021/03/06 05:45:23;;;;;;;23.93;16.30;;;7.20;99.90;;;;;;4974079;28;20244;-78
2021/03/06 05:47:50;;;;;;;26.23;16.90;;;7.10;99.90;;;;;;4973633;28;20682;-78
2021/03/06 05:50:16;;;;;;;24.67;16.00;;;7.10;99.90;;;;;;4973452;28;20256;-76
2021/03/06 05:52:46;;;;;;;23.47;15.27;;;7.30;99.90;;;;;;4973639;28;20209;-78
2021/03/06 05:55:17;;;;;;;26.03;15.70;;;7.20;99.90;;;;;;4973104;28;20324;-77
2021/03/06 05:57:43;;;;;;;27.70;17.07;;;7.30;99.90;;;;;;4973884;28;20224;-77
2021/03/06 06:00:11;;;;;;;23.43;16.00;;;7.20;99.90;;;;;;4973098;28;20603;-75
2021/03/06 06:02:38;;;;;;;23.87;15.63;;;7.10;99.90;;;;;;4972995;28;20210;-75
2021/03/06 06:05:06;;;;;;;21.03;14.73;;;7.10;99.90;;;;;;4972399;28;20213;-76
2021/03/06 06:07:35;;;;;;;26.03;17.00;;;7.20;99.90;;;;;;4973625;28;20205;-77
2021/03/06 06:10:03;;;;;;;27.53;16.73;;;7.40;99.90;;;;;;4973250;28;20213;-77
2021/03/06 06:12:29;;;;;;;22.90;14.43;;;7.70;99.90;;;;;;4973204;28;20213;-76
2021/03/06 06:14:56;;;;;;;25.60;14.83;;;7.90;99.90;;;;;;4973458;28;20222;-77
2021/03/06 06:17:24;;;;;;;23.10;15.30;;;8.00;99.90;;;;;;4972880;28;20225;-76
2021/03/06 06:19:50;;;;;;;21.90;16.07;;;8.10;99.90;;;;;;4973309;28;20834;-76
2021/03/06 06:22:18;;;;;;;21.37;13.40;;;8.10;99.90;;;;;;4972986;28;20645;-76
2021/03/06 06:24:46;;;;;;;25.17;16.47;;;8.10;99.90;;;;;;4973208;28;20209;-75
2021/03/06 06:27:21;;;;;;;25.50;16.23;;;8.10;99.90;;;;;;4972619;28;20240;-76
2021/03/06 06:29:48;;;;;;;24.67;14.60;;;8.10;99.90;;;;;;4960546;28;20209;-76
2021/03/06 06:32:15;;;;;;;26.03;15.60;;;8.20;99.90;;;;;;4972547;28;20703;-76
2021/03/06 06:34:55;;;;;;;23.30;15.60;;;8.30;99.90;;;;;;4972906;28;20202;-76
2021/03/06 06:37:22;;;;;;;19.80;13.67;;;8.40;99.90;;;;;;4972917;28;20271;-74
2021/03/06 06:39:49;;;;;;;26.90;14.83;;;8.20;99.90;;;;;;4973061;28;20206;-77
2021/03/06 06:42:16;;;;;;;21.93;14.30;;;8.10;99.90;;;;;;4972649;28;20214;-76
2021/03/06 06:44:54;;;;;;;21.37;15.43;;;8.10;99.90;;;;;;4972511;28;20217;-76
2021/03/06 06:47:21;;;;;;;26.07;16.03;;;8.20;99.90;;;;;;4972438;28;20248;-76
2021/03/06 06:49:48;;;;;;;27.20;15.93;;;8.20;99.90;;;;;;4972688;28;20238;-75
2021/03/06 06:52:16;;;;;;;26.87;16.17;;;8.30;99.90;;;;;;4972086;28;20216;-75
2021/03/06 06:54:51;;;;;;;22.47;13.53;;;8.40;99.90;;;;;;4972506;28;20213;-76
2021/03/06 06:57:19;;;;;;;27.03;15.90;;;8.30;99.90;;;;;;4971962;28;20589;-76
2021/03/06 06:59:54;;;;;;;23.57;16.00;;;8.10;99.90;;;;;;4972558;28;20264;-75
2021/03/06 07:02:21;;;;;;;25.77;15.90;;;8.00;99.90;;;;;;4971809;28;20689;-76
2021/03/06 07:04:52;;;;;;;28.10;16.10;;;8.20;99.90;;;;;;4972650;28;20214;-77
2021/03/06 07:07:20;;;;;;;27.73;17.20;;;8.30;99.90;;;;;;4971936;28;20276;-76
2021/03/06 07:10:05;;;;;;;24.17;15.67;;;8.50;99.90;;;;;;4970234;28;20210;-77
2021/03/06 07:12:33;;;;;;;23.50;16.37;;;8.50;99.90;;;;;;4971056;28;20217;-78
2021/03/06 07:15:01;;;;;;;19.13;15.10;;;8.60;99.90;;;;;;4971079;28;20682;-77
2021/03/06 07:17:43;;;;;;;27.57;15.23;;;8.20;99.90;;;;;;4971880;28;20219;-77
2021/03/06 07:20:12;;;;;;;23.00;15.50;;;8.00;99.90;;;;;;4969971;28;20256;-74
2021/03/06 07:22:38;;;;;;;24.93;17.00;;;8.00;99.90;;;;;;4972097;28;20201;-74
2021/03/06 07:25:06;;;;;;;33.83;21.53;;;8.20;99.90;;;;;;4971470;28;20224;-74
2021/03/06 07:27:33;;;;;;;30.93;21.60;;;8.30;99.90;;;;;;4969820;28;20233;-75
2021/03/06 07:30:00;;;;;;;27.63;17.60;;;8.20;99.90;;;;;;4969967;28;20210;-73
2021/03/06 07:32:32;;;;;;;26.03;15.77;;;8.00;99.90;;;;;;4971044;28;20299;-74
2021/03/06 07:35:02;;;;;;;33.83;20.30;;;8.20;99.90;;;;;;4971878;28;20205;-73
2021/03/06 07:37:29;;;;;;;21.80;15.27;;;8.20;99.90;;;;;;4971572;28;20221;-74
2021/03/06 07:39:58;;;;;;;30.30;19.87;;;7.90;99.90;;;;;;4972295;28;20279;-74
2021/03/06 07:42:38;;;;;;;21.97;14.97;;;7.90;99.90;;;;;;4971932;28;20688;-75
2021/03/06 07:45:06;;;;;;;23.90;16.20;;;7.80;99.90;;;;;;4958517;28;20717;-75
2021/03/06 07:47:37;;;;;;;22.03;16.10;;;8.10;99.90;;;;;;4974512;28;20778;-75
2021/03/06 07:50:06;;;;;;;24.00;15.43;;;8.20;99.90;;;;;;4970953;28;20586;-76
2021/03/06 07:52:36;;;;;;;28.87;17.63;;;8.20;99.90;;;;;;4968350;28;20206;-76
2021/03/06 07:55:04;;;;;;;24.43;16.17;;;8.30;99.90;;;;;;4971518;28;20573;-75
2021/03/06 07:57:31;;;;;;;30.10;17.23;;;8.60;99.90;;;;;;4967012;28;20218;-76
2021/03/06 07:59:58;;;;;;;22.57;15.20;;;8.70;99.90;;;;;;4970225;28;20662;-75
2021/03/06 08:02:42;;;;;;;22.47;15.13;;;8.80;99.90;;;;;;4971578;28;20205;-75
2021/03/06 08:05:42;;;;;;;25.40;17.83;;;9.00;99.90;;;;;;4970015;28;20213;-75
2021/03/06 08:08:09;;;;;;;23.07;15.63;;;8.90;99.90;;;;;;4961230;28;20674;-76
2021/03/06 08:11:06;;;;;;;26.50;16.03;;;9.10;99.90;;;;;;4971132;28;20218;-76
2021/03/06 08:13:36;;;;;;;27.23;17.53;;;9.20;99.90;;;;;;4964614;28;20205;-76
2021/03/06 08:16:39;;;;;;;28.17;15.83;;;9.30;99.90;;;;;;4970533;28;20217;-76
2021/03/06 08:19:25;;;;;;;25.20;16.03;;;9.30;99.90;;;;;;4971000;28;20289;-77
2021/03/06 08:21:52;;;;;;;23.80;15.37;;;9.40;99.90;;;;;;4961898;28;20214;-76
2021/03/06 08:24:27;;;;;;;26.03;16.50;;;9.50;99.90;;;;;;4968787;28;20288;-76
2021/03/06 08:27:21;;;;;;;24.97;16.60;;;9.90;99.90;;;;;;4964070;28;20279;-75
2021/03/06 08:29:50;;;;;;;29.03;16.93;;;9.90;99.90;;;;;;4971259;28;20201;-75
2021/03/06 08:32:27;;;;;;;25.03;16.90;;;10.20;99.90;;;;;;4974986;28;20206;-75
2021/03/06 08:34:54;;;;;;;26.03;15.57;;;10.60;99.90;;;;;;4962899;28;20212;-76
2021/03/06 08:37:37;;;;;;;25.57;15.20;;;10.40;99.90;;;;;;4974039;28;20225;-75
2021/03/06 08:40:09;;;;;;;28.03;17.67;;;10.50;99.90;;;;;;4968607;28;21285;-75
2021/03/06 08:42:37;;;;;;;25.53;15.90;;;10.90;99.90;;;;;;4974640;28;20578;-77
2021/03/06 08:45:06;;;;;;;21.00;15.27;;;11.00;99.90;;;;;;4974541;28;20209;-76
2021/03/06 08:47:35;;;;;;;25.17;15.03;;;11.20;99.90;;;;;;4973720;28;20706;-76
2021/03/06 08:50:04;;;;;;;23.13;14.37;;;11.30;99.90;;;;;;4974450;28;20205;-77
2021/03/06 08:52:31;;;;;;;26.77;16.67;;;11.00;99.90;;;;;;4974548;28;20685;-77
2021/03/06 08:54:58;;;;;;;28.53;16.30;;;10.80;99.90;;;;;;4971197;28;20206;-76
2021/03/06 08:57:30;;;;;;;24.33;14.10;;;10.70;99.90;;;;;;4974409;28;20657;-76
2021/03/06 08:59:57;;;;;;;24.63;16.03;;;10.70;99.90;;;;;;4974384;28;20735;-75
2021/03/06 09:02:28;;;;;;;24.00;17.13;;;10.80;99.90;;;;;;4973504;28;20202;-76
2021/03/06 09:05:08;;;;;;;20.67;15.27;;;10.80;99.90;;;;;;4974830;28;20210;-76
2021/03/06 09:07:36;;;;;;;25.17;15.77;;;10.50;99.90;;;;;;4974312;28;20611;-77
2021/03/06 09:10:38;;;;;;;22.20;15.93;;;10.60;99.90;;;;;;4973596;28;20225;-76
2021/03/06 09:13:07;;;;;;;25.17;15.30;;;10.60;99.90;;;;;;4969351;28;20197;-77
2021/03/06 09:15:45;;;;;;;25.77;16.90;;;10.50;99.90;;;;;;4973560;28;20265;-77
2021/03/06 09:18:15;;;;;;;27.60;16.53;;;10.40;99.90;;;;;;4973825;28;20206;-76
2021/03/06 09:20:47;;;;;;;24.30;15.90;;;10.50;99.90;;;;;;4970285;28;20262;-76
2021/03/06 09:23:27;;;;;;;25.27;16.17;;;10.80;99.90;;;;;;4974025;28;20201;-77
2021/03/06 09:25:54;;;;;;;25.23;15.33;;;11.00;99.90;;;;;;4971442;28;20225;-77
2021/03/06 09:28:25;;;;;;;25.07;16.23;;;11.20;99.90;;;;;;4973519;28;20210;-76
2021/03/06 09:30:53;;;;;;;24.90;16.03;;;11.20;99.90;;;;;;4974147;28;20218;-76
2021/03/06 09:33:30;;;;;;;21.70;15.03;;;11.20;99.90;;;;;;4973365;28;20678;-76
2021/03/06 09:36:07;;;;;;;23.17;15.27;;;11.00;99.90;;;;;;4972425;28;20228;-76
2021/03/06 09:38:35;;;;;;;20.97;15.27;;;11.20;99.90;;;;;;4972734;28;20645;-76
2021/03/06 09:41:02;;;;;;;20.40;16.30;;;11.10;99.90;;;;;;4973610;28;20212;-75
2021/03/06 09:43:33;;;;;;;21.90;15.80;;;11.10;99.90;;;;;;4973705;28;20209;-76
2021/03/06 09:46:01;;;;;;;18.67;14.70;;;11.00;99.90;;;;;;4973469;28;20244;-76
2021/03/06 09:48:29;;;;;;;19.97;14.50;;;11.00;99.90;;;;;;4973894;28;20205;-76
2021/03/06 09:50:58;;;;;;;24.60;14.87;;;11.10;99.90;;;;;;4972240;28;20685;-75
2021/03/06 09:53:26;;;;;;;22.90;15.63;;;11.20;99.90;;;;;;4973118;28;20210;-77
2021/03/06 09:56:09;;;;;;;24.37;15.53;;;11.10;99.90;;;;;;4973767;28;20740;-77
2021/03/06 09:58:35;;;;;;;25.70;16.43;;;11.10;99.90;;;;;;4973716;28;20215;-76
2021/03/06 10:01:13;;;;;;;18.30;14.03;;;11.40;99.90;;;;;;4973589;28;20206;-76
2021/03/06 10:03:40;;;;;;;26.40;14.93;;;11.50;99.90;;;;;;4973618;28;20217;-77
2021/03/06 10:06:08;;;;;;;21.87;14.57;;;11.20;99.90;;;;;;4973339;28;20631;-77
2021/03/06 10:08:38;;;;;;;25.63;16.07;;;11.50;99.90;;;;;;4973122;28;20206;-76
2021/03/06 10:11:05;;;;;;;19.63;14.97;;;11.40;99.90;;;;;;4973247;28;20278;-76
2021/03/06 10:13:32;;;;;;;23.30;16.07;;;11.50;99.90;;;;;;4973660;28;20209;-76
2021/03/06 10:15:59;;;;;;;22.17;15.10;;;11.40;99.90;;;;;;4966540;28;20221;-77
2021/03/06 10:18:27;;;;;;;22.43;14.67;;;11.60;99.90;;;;;;4973431;28;20268;-77
2021/03/06 10:20:55;;;;;;;23.50;15.03;;;11.60;99.90;;;;;;4969521;28;20308;-77
2021/03/06 10:23:32;;;;;;;26.87;16.93;;;11.30;99.90;;;;;;4970699;28;20202;-76
2021/03/06 10:26:24;;;;;;;23.15;16.45;;;11.00;99.90;;;;;;4967814;28;20276;-76
2021/03/06 10:28:54;;;;;;;23.30;15.87;;;11.10;99.90;;;;;;4970763;28;20244;-76
2021/03/06 10:31:32;;;;;;;24.03;15.63;;;11.30;99.90;;;;;;4972522;28;20236;-76
2021/03/06 10:34:13;;;;;;;23.10;15.33;;;11.50;99.90;;;;;;4972295;28;20673;-75
2021/03/06 10:36:40;;;;;;;25.10;15.60;;;11.50;99.90;;;;;;4972625;28;20203;-76
2021/03/06 10:39:17;;;;;;;27.20;16.33;;;11.00;99.90;;;;;;4972486;28;20214;-77
2021/03/06 10:41:45;;;;;;;23.97;17.67;;;11.20;99.90;;;;;;4967853;28;20206;-77
2021/03/06 10:44:11;;;;;;;20.67;15.67;;;11.50;99.90;;;;;;4972375;28;20276;-77
2021/03/06 10:46:38;;;;;;;22.47;14.87;;;11.50;99.90;;;;;;4972865;28;20232;-77
2021/03/06 10:49:06;;;;;;;22.80;15.77;;;11.40;99.90;;;;;;4972419;28;20217;-77
2021/03/06 10:51:49;;;;;;;29.40;17.20;;;11.60;99.90;;;;;;4971712;28;20627;-77
2021/03/06 10:54:16;;;;;;;21.57;15.13;;;11.40;99.90;;;;;;4972413;28;20214;-78
2021/03/06 10:56:44;;;;;;;24.63;16.40;;;11.60;99.90;;;;;;4972246;28;20669;-77
2021/03/06 10:59:11;;;;;;;26.40;16.63;;;11.50;99.90;;;;;;4971345;28;20704;-77
2021/03/06 11:01:50;;;;;;;18.87;13.57;;;11.50;99.90;;;;;;4972375;28;20697;-77
2021/03/06 11:04:27;;;;;;;22.73;14.70;;;11.80;99.90;;;;;;4967535;28;20752;-77
2021/03/06 11:06:55;;;;;;;23.93;16.17;;;11.80;99.90;;;;;;4972101;28;20237;-76
2021/03/06 11:09:25;;;;;;;22.43;14.73;;;11.90;99.90;;;;;;4972307;28;20209;-76
2021/03/06 11:11:53;;;;;;;23.60;15.43;;;11.60;99.90;;;;;;4971136;28;20218;-76
2021/03/06 11:14:24;;;;;;;22.37;15.07;;;11.90;99.90;;;;;;4970175;28;20214;-76
2021/03/06 11:16:50;;;;;;;22.77;15.40;;;12.10;99.90;;;;;;4964717;28;20879;-76
2021/03/06 11:19:17;;;;;;;24.93;16.27;;;12.40;99.90;;;;;;4971381;28;20697;-76
2021/03/06 11:21:43;;;;;;;20.25;12.93;;;12.50;99.90;;;;;;4971737;28;20210;-77
2021/03/06 11:24:10;;;;;;;24.63;15.60;;;12.60;99.90;;;;;;4971681;28;20209;-77
2021/03/06 11:26:37;;;;;;;20.88;14.57;;;12.80;99.90;;;;;;4971831;28;20229;-77
2021/03/06 11:29:05;;;;;;;21.30;16.00;;;12.80;99.90;;;;;;4971366;28;20752;-77
2021/03/06 11:31:32;;;;;;;26.52;15.68;;;12.60;99.90;;;;;;4972037;28;20591;-76
2021/03/06 11:33:59;;;;;;;22.33;14.82;;;12.70;99.90;;;;;;4971257;28;20263;-76
2021/03/06 11:36:26;;;;;;;24.88;15.05;;;12.90;99.90;;;;;;4972076;28;20213;-77
2021/03/06 11:38:52;;;;;;;21.15;14.63;;;12.10;99.90;;;;;;4972050;28;20217;-77
2021/03/06 11:41:19;;;;;;;25.23;15.37;;;11.80;99.90;;;;;;4971431;28;20210;-76
2021/03/06 11:43:45;;;;;;;26.08;16.17;;;12.30;99.90;;;;;;4972189;28;20292;-77
2021/03/06 11:46:13;;;;;;;22.98;14.85;;;12.30;99.90;;;;;;4971468;28;20232;-76
2021/03/06 11:48:39;;;;;;;23.67;15.23;;;12.20;99.90;;;;;;4971454;28;20294;-77
2021/03/06 11:51:06;;;;;;;21.83;15.45;;;12.40;99.90;;;;;;4971437;28;20225;-77
2021/03/06 11:53:32;;;;;;;23.85;14.95;;;13.00;99.90;;;;;;4971739;28;20345;-76
2021/03/06 11:55:59;;;;;;;22.58;15.15;;;12.50;99.90;;;;;;4968436;28;20210;-76
2021/03/06 11:58:25;;;;;;;22.80;16.05;;;12.40;99.90;;;;;;4971317;28;20561;-75
2021/03/06 12:00:52;;;;;;;22.70;16.30;;;12.70;99.90;;;;;;4971634;28;20210;-75
2021/03/06 12:03:19;;;;;;;23.80;15.32;;;12.70;99.90;;;;;;4970326;28;20615;-75
2021/03/06 12:05:46;;;;;;;24.50;15.35;;;12.60;99.90;;;;;;4971108;28;20213;-75
2021/03/06 12:08:12;;;;;;;23.13;15.63;;;12.60;99.90;;;;;;4971267;28;20272;-75
2021/03/06 12:10:39;;;;;;;22.63;15.90;;;12.30;99.90;;;;;;4971462;28;20201;-75
2021/03/06 12:13:05;;;;;;;20.98;16.13;;;12.30;99.90;;;;;;4969881;28;20205;-75
2021/03/06 12:15:31;;;;;;;29.52;17.15;;;12.30;99.90;;;;;;4967154;28;20205;-76
2021/03/06 12:17:58;;;;;;;24.13;16.35;;;12.40;99.90;;;;;;4970904;28;20214;-75
2021/03/06 12:20:25;;;;;;;22.45;16.25;;;12.50;99.90;;;;;;4971395;28;20215;-77
2021/03/06 12:22:52;;;;;;;26.45;15.88;;;12.30;99.90;;;;;;4971476;28;20213;-77
2021/03/06 12:25:18;;;;;;;73.32;53.70;;;12.50;99.90;;;;;;4971192;28;20210;-79
2021/03/06 12:27:45;;;;;;;27.25;19.02;;;12.50;99.90;;;;;;4971211;28;20233;-77
2021/03/06 12:30:14;;;;;;;21.93;14.23;;;12.30;99.90;;;;;;4970296;28;20216;-78
2021/03/06 12:32:41;;;;;;;21.20;14.25;;;12.30;99.90;;;;;;4971008;28;20696;-78
2021/03/06 12:35:09;;;;;;;20.85;15.65;;;12.60;99.90;;;;;;4970881;28;20217;-79
2021/03/06 12:37:36;;;;;;;25.27;17.95;;;12.70;99.90;;;;;;4971165;28;20222;-77
2021/03/06 12:40:06;;;;;;;24.33;15.40;;;13.20;99.90;;;;;;4970751;28;20221;-76
2021/03/06 12:42:33;;;;;;;21.00;14.68;;;13.70;99.90;;;;;;4971475;28;20210;-75
2021/03/06 12:44:59;;;;;;;22.27;15.30;;;14.00;99.90;;;;;;4968876;28;20213;-76